Generalisimo Francisco De Miranda AB, Venezuela
Current Conditions -  °F | °C
As of 9:00 PM on Tuesday 21 Oct 2014 (Local Time) from SVMI Reporting Station
Scattered Clouds Scattered Clouds  
Wind Chill: 81°   Ceiling: Unl
Heat Index: 86°   Visibility: 6mi
Dew Point: 75°   Wind: 2mph
Humidity: 84%   Direction: 50°NE
Pressure: 29.88"   Gusts: NA
Location:  10.48°N, 66.84°W
Report Text: SVMI 220100Z 05002KT 9999 SCT020 27/24 Q1012 NOSIG
Loading
Personal Weather Stations






























Interactive Weather Map
Tropical Storm Tracking
New forecast layout! Learn more

10-Day Weather Forecast

Advertisements
Track Severe Weather on mobile